Disclaimer

Please do not use the information listed here in-flight or in-navigation, as they are not provided to us by the airports but are provided by volunteers, so they might be outdated.

Search


Regions


Airport information page

Radio informations:
AWOS - 128.3 MHz

Airport informations:
Latitude: 72° 41' 00.00" N
Longitude: 077° 58' 00.00" W
Elevation: 181 feet - 55 meters
Operating hours: N/A
Operating agency: Civil government, landing fees and diplomatic clearance may be required
Timezone: Second Sunday in March at 0200 to first Sunday in November at 0200 local time (Exception Arizona and that portion of Indiana in the Eastern Time Zone)
Fuel: Jet A1, without icing nhibitor.

Runway information:
02T/20T - 4000 x 100 feet< - >1219 x 30 meters

Recent METARs:
CYIO 181600Z AUTO 17007KT 9SM CLR M32/M36 A2983 RMK SLP113
CYIO 181700Z AUTO 18008KT 9SM CLR M33/M36 A2984 RMK SLP119
CYIO 181700Z AUTO 18008KT 9SM CLR M33/M36 A2984 RMK SLP119

Airport on the map: